メインページ
METAR-TAF:

METAR-TAF

空港 :

フォス・ド・イグアス国際空港

フォス・ド・イグアス, パラナ州, ブラジル

緯度: 25-31S, 経度: 054-35W, 海抜: 180m

現時点の気象観測

当レポートは1時間2分前の07:00(UTC)に作成
無風
気温 19°C
湿度 100%
気圧 1010 hPa
視程: 0250m

METAR: SBFI 190700Z 00000KT 0250 R32/0600 R14/0800 FG VV001 19/19 Q1010

時間: 05:02 (08:02 UTC)

予報

当レポートは6時間2分前の02:00(UTC)に作成
予報は19日の 06時(UTC)から 20日の 06時(UTC)まで有効
南/南西の風 6kt
視程10km以上
高度1000ftの雲は散在している
確率 40%
19日の 06時(UTC)から 19日の 11時(UTC)まで
視程: 2000m
高度500ftの千切れ雲あり
散在霧, 靄
19日の 12時(UTC)から 19日の 14時(UTC)まで徐々に
南/南東の風 7kt
高度2000ftの雲は散在している
間 1から UTC徐々に
東/南東の風 4kt
高度3000ftの雲は散在している

TAF: SBFI 190200Z 1906/2006 20006KT 9999 SCT010 TN21/1909Z TX28/1917Z PROB40 1906/1911 2000 BCFG BR BKN005 BECMG 1912/1914 16007KT SCT020 BECMG 1 916/1918 12004KT SCT030 RMK PER

4,000以上の空港の気象観測と天気予報(METAR報とTAF報)

利用可能な観測所は地図上に黄色い丸と赤い丸で示す。

丸の上にカーソルを重ねると観測所名を参照できる。

次にクリックすると気象観測と天気予報を参照できる。

マップの切り替え:黒色「×」印の緑ボタンをクリックして拡大、「-」印の緑ボタンをクリックして縮小、緑色の三角印をクリックして隣りの地図に切り替え


METAR-TAF: